Time;durP1;ratioP1;P1;durP2;ratioP2;P2;SDS_P1;SDS_P2;PMS_P1;PMS_P2;Temp;Humidity;BMP_temperature;BMP_pressure;BME280_temperature;BME280_humidity;BME280_pressure;Samples;Min_cycle;Max_cycle;Signal;HPM_P1;HPM_P2
2022/10/02 00:02:01;;;;;;;11.20;2.28;;;;;;;10.52;100.00;100322.91;5007523;28;20049;-83
2022/10/02 00:04:54;;;;;;;10.30;2.15;;;;;;;10.48;100.00;100331.94;5020556;28;20374;-83
2022/10/02 00:07:34;;;;;;;5.45;2.05;;;;;;;10.45;100.00;100333.00;5038479;28;20401;-83
2022/10/02 00:10:10;;;;;;;9.20;2.63;;;;;;;10.45;100.00;100337.44;5044098;28;20033;-84
2022/10/02 00:12:41;;;;;;;8.02;2.55;;;;;;;10.47;100.00;100344.25;5035569;28;20045;-85
2022/10/02 00:15:15;;;;;;;13.25;2.58;;;;;;;10.52;100.00;100339.53;5035954;28;20064;-84
2022/10/02 00:17:46;;;;;;;10.27;2.80;;;;;;;10.57;100.00;100340.09;5014871;28;20100;-83
2022/10/02 00:20:18;;;;;;;10.90;2.75;;;;;;;10.56;100.00;100342.84;5009201;28;20083;-82
2022/10/02 00:22:49;;;;;;;12.15;2.15;;;;;;;10.67;100.00;100366.69;5024105;28;20060;-85
2022/10/02 00:25:41;;;;;;;8.75;2.80;;;;;;;10.59;100.00;100337.38;5034303;28;20049;-85
2022/10/02 00:28:27;;;;;;;11.00;2.40;;;;;;;10.67;100.00;100339.50;5017932;28;20053;-83
2022/10/02 00:30:55;;;;;;;;;;;;;;;10.61;100.00;100343.38;5034069;28;20169;-84
2022/10/02 00:34:01;;;;;;;11.95;2.65;;;;;;;10.65;100.00;100343.09;5034343;28;19989;-83
2022/10/02 00:36:47;;;;;;;11.18;2.13;;;;;;;10.61;100.00;100343.38;5030696;28;20084;-83
2022/10/02 00:39:56;;;;;;;9.77;2.50;;;;;;;10.74;100.00;100346.09;5033780;28;20053;-84
2022/10/02 00:42:32;;;;;;;13.25;2.60;;;;;;;10.60;100.00;100347.81;5016252;28;20111;-83
2022/10/02 00:45:30;;;;;;;12.05;2.88;;;;;;;10.60;100.00;100349.59;5027640;28;20041;-84
2022/10/02 00:48:31;;;;;;;12.57;3.15;;;;;;;10.56;100.00;100348.09;5032537;28;20054;-83
2022/10/02 00:51:49;;;;;;;11.43;2.47;;;;;;;10.60;100.00;100355.72;5015537;28;20404;-84
2022/10/02 00:54:16;;;;;;;17.20;2.50;;;;;;;10.64;100.00;100357.22;5031622;28;20220;-83
2022/10/02 00:57:01;;;;;;;10.80;2.15;;;;;;;10.63;100.00;100355.53;5033255;28;20061;-83
2022/10/02 00:59:59;;;;;;;8.55;2.05;;;;;;;10.63;100.00;100354.69;5029922;28;20057;-83
2022/10/02 01:02:35;;;;;;;12.60;2.40;;;;;;;10.66;100.00;100359.72;5028602;28;20065;-84
2022/10/02 01:05:06;;;;;;;13.93;2.60;;;;;;;10.63;100.00;100362.59;5031079;28;20144;-83
2022/10/02 01:07:35;;;;;;;18.85;2.42;;;;;;;10.73;100.00;100362.84;5010943;28;20049;-85
2022/10/02 01:10:03;;;;;;;10.38;2.30;;;;;;;10.69;100.00;100369.25;4991290;28;20067;-84
2022/10/02 01:12:30;;;;;;;14.98;2.53;;;;;;;10.70;100.00;100371.75;4999607;28;20184;-83
2022/10/02 01:14:57;;;;;;;10.15;2.55;;;;;;;10.65;100.00;100373.84;5031803;28;20054;-82
2022/10/02 01:17:30;;;;;;;12.25;2.75;;;;;;;10.71;100.00;100372.59;5029640;28;20049;-83
2022/10/02 01:20:04;;;;;;;7.95;2.63;;;;;;;10.63;100.00;100376.59;5013816;28;20049;-83
2022/10/02 01:22:44;;;;;;;11.05;2.65;;;;;;;10.58;100.00;100386.56;5015389;28;20053;-83
2022/10/02 01:25:11;;;;;;;11.68;2.95;;;;;;;10.65;100.00;100385.22;5031485;28;20049;-84
2022/10/02 01:27:39;;;;;;;9.68;2.55;;;;;;;10.64;100.00;100382.69;4996612;28;20049;-84
2022/10/02 01:30:13;;;;;;;11.82;2.55;;;;;;;10.59;100.00;100388.25;5029643;28;20133;-83
2022/10/02 01:32:44;;;;;;;14.00;3.05;;;;;;;10.59;100.00;100388.25;5029095;28;20306;-83
2022/10/02 01:35:12;;;;;;;10.35;2.38;;;;;;;10.59;100.00;100390.88;5014319;28;20052;-84
2022/10/02 01:37:43;;;;;;;9.23;2.63;;;;;;;10.55;100.00;100392.00;5027794;28;20459;-83
2022/10/02 01:40:24;;;;;;;11.48;2.03;;;;;;;10.52;100.00;100393.97;4999714;28;20076;-83
2022/10/02 01:42:52;;;;;;;11.05;2.47;;;;;;;10.52;100.00;100399.25;5013250;28;20429;-84
2022/10/02 01:45:25;;;;;;;15.75;2.30;;;;;;;10.47;100.00;100401.31;5027499;28;20151;-83
2022/10/02 01:48:13;;;;;;;12.93;2.67;;;;;;;10.47;100.00;100404.78;5014410;28;20045;-80
2022/10/02 01:50:44;;;;;;;9.43;2.05;;;;;;;10.50;100.00;100409.03;4999056;28;20063;-83
2022/10/02 01:53:41;;;;;;;10.98;2.72;;;;;;;10.54;100.00;100410.53;4998612;28;20041;-84
2022/10/02 01:56:11;;;;;;;;;;;;;;;10.51;100.00;100414.19;5001366;28;20499;-84
2022/10/02 01:58:59;;;;;;;14.10;3.05;;;;;;;10.48;100.00;100406.47;5014378;28;19979;-84
2022/10/02 02:01:52;;;;;;;13.23;2.17;;;;;;;10.44;100.00;100406.75;5031198;28;20053;-81
2022/10/02 02:04:27;;;;;;;16.83;2.80;;;;;;;10.45;100.00;100406.69;5029462;28;20053;-84
2022/10/02 02:07:14;;;;;;;14.43;2.55;;;;;;;10.39;100.00;100410.53;5029015;28;20076;-84
2022/10/02 02:09:51;;;;;;;12.70;2.85;;;;;;;10.39;100.00;100402.63;5028669;28;20057;-83
2022/10/02 02:12:42;;;;;;;11.32;1.92;;;;;;;10.53;100.00;100404.41;5029824;28;20227;-84
2022/10/02 02:15:21;;;;;;;12.88;2.88;;;;;;;10.41;100.00;100412.25;5029525;28;20049;-84
2022/10/02 02:17:52;;;;;;;9.82;2.28;;;;;;;10.39;100.00;100418.41;5031760;28;20132;-83
2022/10/02 02:20:33;;;;;;;18.40;4.75;;;;;;;10.36;100.00;100425.69;5030019;28;20560;-83
2022/10/02 02:23:16;;;;;;;19.15;3.15;;;;;;;10.36;100.00;100425.69;5012397;28;20045;-84
2022/10/02 02:26:00;;;;;;;15.52;2.72;;;;;;;10.36;100.00;100431.78;5016709;28;20045;-84
2022/10/02 02:28:29;;;;;;;13.20;2.58;;;;;;;10.37;100.00;100430.84;5037127;28;20080;-84
2022/10/02 02:30:57;;;;;;;14.18;2.53;;;;;;;10.35;100.00;100427.44;5029382;28;20069;-84
2022/10/02 02:33:40;;;;;;;8.35;2.75;;;;;;;10.39;100.00;100428.94;5031098;28;20053;-85
2022/10/02 02:36:12;;;;;;;14.80;2.80;;;;;;;10.43;100.00;100426.97;5032421;28;20049;-85
2022/10/02 02:38:43;;;;;;;8.07;2.22;;;;;;;10.37;100.00;100427.38;5013078;28;20366;-83
2022/10/02 02:41:23;;;;;;;12.02;2.95;;;;;;;10.38;100.00;100434.31;5015190;28;20084;-82
2022/10/02 02:44:02;;;;;;;10.60;2.30;;;;;;;10.41;100.00;100436.75;5034831;28;20053;-84
2022/10/02 02:47:11;;;;;;;15.88;3.30;;;;;;;10.41;100.00;100442.03;5008377;28;20045;-80
2022/10/02 02:49:56;;;;;;;12.60;2.58;;;;;;;10.42;100.00;100434.97;5027393;28;20045;-84
2022/10/02 02:52:27;;;;;;;14.70;3.53;;;;;;;10.39;100.00;100443.88;5026917;28;20085;-81
2022/10/02 02:55:04;;;;;;;10.70;2.75;;;;;;;10.31;100.00;100444.38;5002323;28;20476;-85
2022/10/02 02:57:43;;;;;;;10.45;2.78;;;;;;;10.37;100.00;100448.41;5010937;28;20145;-83
2022/10/02 03:00:16;;;;;;;12.90;3.10;;;;;;;10.36;100.00;100444.09;5013729;28;20453;-84
2022/10/02 03:02:49;;;;;;;16.33;3.05;;;;;;;10.50;100.00;100448.50;5026436;28;20132;-83
2022/10/02 03:05:17;;;;;;;8.95;2.15;;;;;;;10.38;100.00;100448.31;5032901;28;20113;-84
2022/10/02 03:07:53;;;;;;;14.63;2.67;;;;;;;10.30;100.00;100453.19;5030759;28;20092;-84
2022/10/02 03:10:29;;;;;;;15.63;2.40;;;;;;;10.24;100.00;100445.69;5027545;28;20050;-84
2022/10/02 03:13:14;;;;;;;12.57;2.50;;;;;;;10.26;100.00;100456.09;5031999;28;20045;-83
2022/10/02 03:15:50;;;;;;;13.73;2.20;;;;;;;10.28;100.00;100446.34;5026245;28;20057;-82
2022/10/02 03:18:30;;;;;;;12.82;2.53;;;;;;;10.26;100.00;100442.94;5027675;28;20068;-83
2022/10/02 03:21:07;;;;;;;8.07;2.28;;;;;;;10.22;100.00;100442.28;5045678;28;20057;-81
2022/10/02 03:23:57;;;;;;;12.32;2.33;;;;;;;10.21;100.00;100455.50;5012560;28;20416;-82
2022/10/02 03:27:10;;;;;;;6.30;1.92;;;;;;;10.24;100.00;100458.81;5064307;28;20050;-82
2022/10/02 03:29:58;;;;;;;13.38;2.20;;;;;;;10.21;100.00;100451.06;4958045;28;20078;-82
2022/10/02 03:32:26;;;;;;;14.27;3.17;;;;;;;10.21;100.00;100452.88;5028668;28;20049;-84
2022/10/02 03:34:56;;;;;;;11.68;2.95;;;;;;;10.22;100.00;100457.19;5028633;28;20060;-83
2022/10/02 03:37:24;;;;;;;10.93;2.28;;;;;;;10.20;100.00;100456.44;5026912;28;20064;-84
2022/10/02 03:39:57;;;;;;;14.48;2.40;;;;;;;10.18;100.00;100453.03;5000137;28;20084;-83
2022/10/02 03:42:30;;;;;;;11.05;2.25;;;;;;;10.26;100.00;100461.34;5031955;28;20547;-82
2022/10/02 03:44:58;;;;;;;14.55;2.30;;;;;;;10.18;100.00;100455.66;5033475;28;20197;-87
2022/10/02 03:47:25;;;;;;;10.65;2.15;;;;;;;10.19;100.00;100466.13;5030895;28;20054;-84
2022/10/02 03:49:52;;;;;;;12.20;3.22;;;;;;;10.17;100.00;100457.47;5016623;28;20060;-84
2022/10/02 03:52:21;;;;;;;12.48;2.40;;;;;;;10.15;100.00;100462.81;5027847;28;20322;-84
2022/10/02 03:55:14;;;;;;;16.60;2.80;;;;;;;10.14;100.00;100455.88;5018037;28;20213;-82
2022/10/02 03:57:47;;;;;;;11.65;2.70;;;;;;;10.18;100.00;100456.53;5029201;28;20046;-83
2022/10/02 04:00:18;;;;;;;11.55;2.38;;;;;;;10.19;100.00;100460.88;5029547;28;20481;-83
2022/10/02 04:02:46;;;;;;;13.07;2.58;;;;;;;10.17;100.00;100451.34;5034891;28;20111;-83
2022/10/02 04:05:45;;;;;;;12.27;2.03;;;;;;;10.14;100.00;100458.50;5033810;28;20068;-84
2022/10/02 04:08:25;;;;;;;12.93;2.97;;;;;;;10.14;100.00;100452.41;5030942;28;20141;-83
2022/10/02 04:11:08;;;;;;;9.75;2.28;;;;;;;10.09;100.00;100464.97;5035195;28;20282;-83
2022/10/02 04:14:07;;;;;;;10.27;2.28;;;;;;;10.11;100.00;100463.09;5040726;28;20487;-83
2022/10/02 04:16:56;;;;;;;13.05;2.60;;;;;;;10.14;100.00;100461.13;5030456;28;20049;-83
2022/10/02 04:19:40;;;;;;;14.80;2.92;;;;;;;10.12;100.00;100456.88;5044710;28;20079;-82
2022/10/02 04:22:34;;;;;;;9.40;2.40;;;;;;;10.07;100.00;100454.53;5017723;28;20136;-84
2022/10/02 04:25:15;;;;;;;13.45;2.95;;;;;;;10.10;100.00;100459.63;5042637;28;20219;-83
2022/10/02 04:27:57;;;;;;;;;;;;;;;10.11;100.00;100457.84;5009238;28;20649;-83
2022/10/02 04:30:40;;;;;;;12.60;3.38;;;;;;;10.08;100.00;100468.53;5038690;28;20000;-81
2022/10/02 04:33:19;;;;;;;12.50;2.55;;;;;;;10.15;100.00;100465.44;5028034;28;20038;-81
2022/10/02 04:36:22;;;;;;;11.32;1.95;;;;;;;10.13;100.00;100467.34;5031775;28;20235;-81
2022/10/02 04:38:57;;;;;;;12.25;2.50;;;;;;;10.18;100.00;100464.44;5050636;28;20069;-81
2022/10/02 04:42:02;;;;;;;15.50;3.08;;;;;;;10.23;100.00;100458.91;5033603;28;20360;-81
2022/10/02 04:44:56;;;;;;;9.05;2.25;;;;;;;10.24;100.00;100466.72;5046658;28;20160;-81
2022/10/02 04:47:54;;;;;;;8.98;1.77;;;;;;;10.22;100.00;100465.06;5037517;28;20050;-81
2022/10/02 04:50:34;;;;;;;13.95;2.97;;;;;;;10.24;100.00;100474.63;5047520;28;20128;-81
2022/10/02 04:53:25;;;;;;;9.75;2.00;;;;;;;10.24;100.00;100461.47;5051984;28;20045;-82
2022/10/02 04:56:07;;;;;;;10.70;2.15;;;;;;;10.29;100.00;100475.19;5020913;28;20029;-80
2022/10/02 04:58:58;;;;;;;14.40;2.42;;;;;;;10.31;100.00;100475.06;5051745;28;20029;-82
2022/10/02 05:02:10;;;;;;;13.43;2.58;;;;;;;10.37;100.00;100472.09;5036596;28;20065;-82
2022/10/02 05:05:01;;;;;;;9.82;2.30;;;;;;;10.36;100.00;100488.84;4988390;28;20047;-81
2022/10/02 05:07:35;;;;;;;10.80;2.22;;;;;;;10.35;100.00;100474.78;5050046;28;20049;-80
2022/10/02 05:10:35;;;;;;;8.70;2.00;;;;;;;10.35;100.00;100469.53;5048390;28;20042;-82
2022/10/02 05:13:26;;;;;;;9.45;1.90;;;;;;;10.47;100.00;100475.84;5057143;28;20053;-83
2022/10/02 05:16:17;;;;;;;10.55;1.77;;;;;;;10.42;100.00;100483.19;5066983;28;20052;-82
2022/10/02 05:19:16;;;;;;;15.82;2.50;;;;;;;10.51;100.00;100476.53;5046982;28;20060;-83
2022/10/02 05:22:13;;;;;;;8.25;2.38;;;;;;;10.48;100.00;100489.84;5053258;28;20079;-83
2022/10/02 05:24:49;;;;;;;12.65;2.08;;;;;;;10.49;100.00;100473.13;5029220;28;20050;-80
2022/10/02 05:28:11;;;;;;;12.65;3.28;;;;;;;10.58;100.00;100477.81;5050931;28;20136;-81
2022/10/02 05:31:20;;;;;;;11.75;2.03;;;;;;;10.60;100.00;100482.06;5008118;28;20053;-82
2022/10/02 05:33:54;;;;;;;7.80;2.22;;;;;;;10.60;100.00;100489.13;5004252;28;20084;-83
2022/10/02 05:36:43;;;;;;;11.30;2.25;;;;;;;10.66;100.00;100496.63;5035111;28;20042;-83
2022/10/02 05:39:30;;;;;;;6.20;1.60;;;;;;;10.66;100.00;100491.38;5023799;28;20102;-82
2022/10/02 05:42:07;;;;;;;8.35;1.95;;;;;;;10.66;100.00;100488.72;5039863;28;20100;-81
2022/10/02 05:44:42;;;;;;;12.02;2.30;;;;;;;10.60;100.00;100500.50;5043545;28;20060;-84
2022/10/02 05:47:38;;;;;;;10.45;2.05;;;;;;;10.68;100.00;100499.19;5034029;28;21410;-83
2022/10/02 05:50:26;;;;;;;10.63;2.20;;;;;;;10.68;100.00;100488.66;5030940;28;20063;-84
2022/10/02 05:53:00;;;;;;;6.32;1.75;;;;;;;10.78;100.00;100505.56;5016981;28;20057;-83
2022/10/02 05:55:48;;;;;;;13.25;2.67;;;;;;;10.88;100.00;100486.47;5030325;28;20041;-84
2022/10/02 05:58:24;;;;;;;10.27;1.85;;;;;;;10.83;100.00;100495.59;5031296;28;20473;-84
2022/10/02 06:01:16;;;;;;;6.32;1.73;;;;;;;10.85;100.00;100506.88;5015187;28;20469;-86
2022/10/02 06:03:52;;;;;;;9.80;2.30;;;;;;;10.92;100.00;100517.88;5015516;28;20046;-83
2022/10/02 06:06:25;;;;;;;9.77;2.15;;;;;;;10.96;100.00;100504.44;5008228;28;20112;-84
2022/10/02 06:09:09;;;;;;;10.02;2.65;;;;;;;11.13;100.00;100511.28;5026157;28;20067;-83
2022/10/02 06:11:45;;;;;;;11.68;2.05;;;;;;;11.10;100.00;100496.50;5034166;28;20073;-84
2022/10/02 06:14:26;;;;;;;14.23;2.55;;;;;;;11.11;100.00;100511.34;5016496;28;20148;-83
2022/10/02 06:17:06;;;;;;;9.00;2.10;;;;;;;11.20;100.00;100509.09;5027889;28;20057;-83
2022/10/02 06:19:51;;;;;;;11.60;2.20;;;;;;;11.14;100.00;100512.97;4996969;28;20497;-84
2022/10/02 06:22:20;;;;;;;15.02;2.63;;;;;;;11.09;100.00;100515.91;5030219;28;20057;-86
2022/10/02 06:25:03;;;;;;;12.45;3.00;;;;;;;11.16;100.00;100517.19;5019981;28;20417;-82
2022/10/02 06:27:45;;;;;;;10.65;2.28;;;;;;;11.13;100.00;100525.31;5014363;28;20103;-84
2022/10/02 06:30:17;;;;;;;11.50;2.03;;;;;;;11.10;100.00;100509.69;5038634;28;20040;-83
2022/10/02 06:33:02;;;;;;;10.93;2.30;;;;;;;11.09;100.00;100520.31;5034171;28;20049;-83
2022/10/02 06:36:09;;;;;;;15.60;2.58;;;;;;;11.22;100.00;100512.50;5012642;28;20068;-84
2022/10/02 06:38:39;;;;;;;9.40;2.15;;;;;;;11.19;100.00;100526.69;5020383;28;20072;-85
2022/10/02 06:41:34;;;;;;;11.60;2.20;;;;;;;11.15;100.00;100526.03;5028282;28;20095;-84
2022/10/02 06:44:07;;;;;;;15.82;3.03;;;;;;;11.18;100.00;100521.53;5015568;28;20579;-85
2022/10/02 06:47:20;;;;;;;18.92;2.78;;;;;;;11.16;100.00;100532.16;4999787;28;20051;-83
2022/10/02 06:49:47;;;;;;;8.45;2.00;;;;;;;11.19;100.00;100537.22;4992547;28;20058;-84
2022/10/02 06:52:35;;;;;;;11.48;2.30;;;;;;;11.22;100.00;100531.78;5031124;28;20520;-84
2022/10/02 06:55:19;;;;;;;13.05;2.42;;;;;;;11.20;100.00;100538.91;5028155;28;20388;-85
2022/10/02 06:58:11;;;;;;;12.95;2.17;;;;;;;11.20;100.00;100532.81;5030753;28;20393;-85
2022/10/02 07:00:49;;;;;;;12.52;2.58;;;;;;;11.23;100.00;100524.72;5013540;28;20054;-84
2022/10/02 07:03:32;;;;;;;17.17;2.75;;;;;;;11.22;100.00;100530.94;5009757;28;20049;-83
2022/10/02 07:06:08;;;;;;;15.40;3.47;;;;;;;11.26;100.00;100525.38;5011013;28;20060;-84
2022/10/02 07:08:48;;;;;;;9.48;2.65;;;;;;;11.25;100.00;100525.44;5029250;28;20041;-84
2022/10/02 07:11:31;;;;;;;11.85;2.60;;;;;;;11.31;100.00;100531.19;5031989;28;20488;-83
2022/10/02 07:14:07;;;;;;;15.00;3.05;;;;;;;11.33;100.00;100528.44;5035533;28;20080;-84
2022/10/02 07:17:06;;;;;;;12.23;2.72;;;;;;;11.32;100.00;100524.97;5032579;28;20377;-84
2022/10/02 07:19:42;;;;;;;9.30;2.65;;;;;;;11.33;100.00;100524.03;5027112;28;20057;-84
2022/10/02 07:22:22;;;;;;;12.88;3.63;;;;;;;11.33;100.00;100533.72;5031869;28;20535;-85
2022/10/02 07:25:31;;;;;;;17.85;3.45;;;;;;;11.39;100.00;100541.22;5035787;28;21096;-84
2022/10/02 07:28:02;;;;;;;11.50;2.97;;;;;;;11.42;100.00;100533.13;5017216;28;20140;-84
2022/10/02 07:30:37;;;;;;;15.93;3.08;;;;;;;11.46;100.00;100539.06;5033424;28;20241;-82
2022/10/02 07:33:18;;;;;;;10.15;2.88;;;;;;;11.53;100.00;100533.31;5000086;28;20090;-83
2022/10/02 07:36:07;;;;;;;17.00;3.20;;;;;;;11.59;100.00;100540.81;5036130;28;20655;-82
2022/10/02 07:38:57;;;;;;;14.48;3.92;;;;;;;11.70;100.00;100547.19;5031907;28;20123;-83
2022/10/02 07:41:34;;;;;;;9.82;3.22;;;;;;;11.84;100.00;100544.50;5049834;28;20049;-84
2022/10/02 07:44:14;;;;;;;10.90;3.58;;;;;;;11.86;100.00;100543.47;5035620;28;20145;-83
2022/10/02 07:46:55;;;;;;;14.45;3.33;;;;;;;11.95;100.00;100546.47;5030035;28;20041;-83
2022/10/02 07:49:55;;;;;;;16.15;3.85;;;;;;;12.05;100.00;100545.75;5035019;28;20049;-84
2022/10/02 07:53:00;;;;;;;17.63;3.53;;;;;;;12.08;100.00;100544.72;5037338;28;20049;-83
2022/10/02 07:55:28;;;;;;;16.80;3.90;;;;;;;12.16;100.00;100553.81;5035073;28;20049;-85
2022/10/02 07:58:04;;;;;;;11.98;3.60;;;;;;;12.21;100.00;100542.09;5020628;28;20067;-84
2022/10/02 08:00:35;;;;;;;19.98;4.53;;;;;;;12.35;100.00;100557.84;5022994;28;20038;-82
2022/10/02 08:03:08;;;;;;;14.20;4.38;;;;;;;12.37;100.00;100558.59;5008152;28;20038;-83
2022/10/02 08:05:55;;;;;;;14.43;4.60;;;;;;;12.47;100.00;100559.66;5018332;28;20069;-85
2022/10/02 08:08:42;;;;;;;13.88;3.45;;;;;;;12.49;100.00;100563.06;5032653;28;20356;-83
2022/10/02 08:11:18;;;;;;;25.08;4.80;;;;;;;12.51;100.00;100563.78;4998113;28;20152;-85
2022/10/02 08:14:10;;;;;;;18.02;4.35;;;;;;;12.66;100.00;100556.63;5040867;28;20075;-84
2022/10/02 08:16:47;;;;;;;18.50;3.97;;;;;;;12.70;100.00;100552.81;5028555;28;20038;-85
2022/10/02 08:19:29;;;;;;;16.73;4.50;;;;;;;12.77;100.00;100556.72;5014143;28;20049;-85
2022/10/02 08:22:07;;;;;;;14.90;4.13;;;;;;;12.84;100.00;100559.78;5028107;28;20049;-84
2022/10/02 08:24:40;;;;;;;16.25;3.63;;;;;;;12.94;100.00;100558.19;5027321;28;20045;-85
2022/10/02 08:27:17;;;;;;;22.50;5.10;;;;;;;12.99;100.00;100548.13;5022751;28;20141;-82
2022/10/02 08:29:57;;;;;;;14.77;4.78;;;;;;;13.02;100.00;100552.38;5029174;28;20080;-83
2022/10/02 08:32:32;;;;;;;18.23;4.93;;;;;;;13.10;100.00;100544.72;5028742;28;20041;-83
2022/10/02 08:35:12;;;;;;;15.60;3.92;;;;;;;13.18;99.84;100547.69;5029051;28;20045;-85
2022/10/02 08:37:48;;;;;;;15.60;4.28;;;;;;;13.31;99.83;100550.34;5014428;28;20049;-84
2022/10/02 08:40:28;;;;;;;21.25;5.20;;;;;;;13.38;98.87;100554.25;5024182;28;20056;-84
2022/10/02 08:43:22;;;;;;;13.77;4.40;;;;;;;13.35;98.45;100546.53;5011087;28;20058;-85
2022/10/02 08:46:10;;;;;;;13.45;4.47;;;;;;;13.40;98.06;100549.66;5014595;28;20041;-83
2022/10/02 08:49:01;;;;;;;14.27;4.03;;;;;;;13.51;97.23;100541.81;5043067;28;20056;-83
2022/10/02 08:52:01;;;;;;;15.95;4.72;;;;;;;13.59;97.57;100538.59;5014669;28;20185;-85
2022/10/02 08:55:08;;;;;;;16.80;4.13;;;;;;;13.67;96.42;100533.59;5015136;28;20053;-83
2022/10/02 08:57:55;;;;;;;18.38;5.88;;;;;;;13.75;96.89;100536.53;5035033;28;20064;-83
2022/10/02 09:00:43;;;;;;;13.50;3.00;;;;;;;13.86;96.80;100533.09;5021051;28;20040;-83
2022/10/02 09:03:46;;;;;;;15.63;4.53;;;;;;;14.01;95.07;100539.91;5023228;28;20140;-82
2022/10/02 09:06:54;;;;;;;16.65;4.57;;;;;;;14.03;95.42;100537.97;5031315;28;20045;-82
2022/10/02 09:09:27;;;;;;;17.95;4.72;;;;;;;14.03;94.01;100535.31;5028888;28;20145;-85
2022/10/02 09:12:32;;;;;;;16.58;4.55;;;;;;;14.04;94.39;100544.09;5031557;28;20045;-83
2022/10/02 09:15:19;;;;;;;15.80;3.65;;;;;;;14.06;94.05;100543.03;5033097;28;20384;-83
2022/10/02 09:17:58;;;;;;;16.40;4.55;;;;;;;14.10;93.75;100544.50;5013367;28;20053;-84
2022/10/02 09:21:04;;;;;;;14.23;4.05;;;;;;;14.08;93.82;100553.50;5001378;28;20069;-83
2022/10/02 09:24:11;;;;;;;16.02;4.30;;;;;;;14.16;91.98;100536.09;5000571;28;20049;-83
2022/10/02 09:27:03;;;;;;;13.68;5.18;;;;;;;14.09;92.79;100541.97;5032319;28;20049;-83
2022/10/02 09:30:08;;;;;;;12.88;3.85;;;;;;;14.11;92.74;100555.94;5029750;28;20151;-82
2022/10/02 09:33:14;;;;;;;22.20;4.20;;;;;;;14.15;92.78;100537.06;5005363;28;20049;-84
2022/10/02 09:36:08;;;;;;;23.38;5.13;;;;;;;14.18;93.41;100538.63;5041866;28;20096;-84
2022/10/02 09:38:57;;;;;;;22.67;6.15;;;;;;;14.18;92.19;100536.84;5019687;28;20042;-84
2022/10/02 09:42:04;;;;;;;16.60;4.75;;;;;;;14.16;92.56;100533.44;5014261;28;20066;-83
2022/10/02 09:45:07;;;;;;;;;;;;;;;;;;;;;
2022/10/02 09:47:47;;;;;;;12.90;3.75;;;;;;;14.37;91.73;100524.84;5029842;28;20488;-83
2022/10/02 09:50:36;;;;;;;12.20;4.22;;;;;;;14.44;90.65;100513.66;5016853;28;20111;-84
2022/10/02 09:53:21;;;;;;;18.35;3.72;;;;;;;14.56;89.53;100511.91;5027222;28;20099;-84
2022/10/02 09:55:57;;;;;;;14.43;3.92;;;;;;;14.60;90.31;100509.88;5030231;28;20057;-83
2022/10/02 09:59:06;;;;;;;17.70;4.72;;;;;;;14.81;87.58;100517.94;5045746;28;20045;-84
2022/10/02 10:01:49;;;;;;;14.82;3.85;;;;;;;14.87;88.55;100501.56;5027851;28;20148;-83
2022/10/02 10:04:34;;;;;;;10.05;3.47;;;;;;;14.95;87.54;100520.38;5016168;28;20045;-82
2022/10/02 10:07:48;;;;;;;13.45;4.68;;;;;;;15.00;86.67;100518.19;5035996;28;20057;-84
2022/10/02 10:10:40;;;;;;;11.38;3.20;;;;;;;14.99;86.85;100503.22;5030719;28;20045;-82
2022/10/02 10:13:20;;;;;;;12.00;3.20;;;;;;;14.88;87.00;100520.00;5033665;28;20044;-84
2022/10/02 10:16:29;;;;;;;14.50;3.38;;;;;;;14.81;86.36;100502.03;5028537;28;20433;-81
2022/10/02 10:19:12;;;;;;;17.85;4.25;;;;;;;14.69;87.70;100519.75;5017825;28;20191;-83
2022/10/02 10:21:50;;;;;;;16.75;2.90;;;;;;;14.62;87.05;100523.81;5025423;28;20625;-84
2022/10/02 10:24:23;;;;;;;20.33;3.20;;;;;;;14.52;88.61;100529.00;5020779;28;20203;-83
2022/10/02 10:27:19;;;;;;;16.00;3.67;;;;;;;14.43;91.21;100532.31;5021912;28;20074;-83
2022/10/02 10:30:08;;;;;;;11.13;2.97;;;;;;;14.38;92.08;100523.88;5019970;28;20132;-83
2022/10/02 10:33:07;;;;;;;14.63;3.42;;;;;;;14.40;93.93;100529.91;5015637;28;20034;-82
2022/10/02 10:36:03;;;;;;;13.60;3.40;;;;;;;14.43;92.09;100529.66;5031455;28;20148;-83
2022/10/02 10:38:51;;;;;;;10.50;2.40;;;;;;;14.58;91.61;100536.47;5021196;28;20056;-85
2022/10/02 10:41:56;;;;;;;12.63;3.45;;;;;;;14.62;91.90;100531.78;5027267;28;20497;-83
2022/10/02 10:45:04;;;;;;;8.77;2.78;;;;;;;14.60;90.80;100531.91;5031233;28;20127;-83
2022/10/02 10:47:54;;;;;;;9.95;2.58;;;;;;;14.60;90.90;100531.91;5024271;28;20049;-83
2022/10/02 10:51:29;;;;;;;11.20;2.90;;;;;;;14.60;91.12;100537.19;5031197;28;20045;-83
2022/10/02 10:54:25;;;;;;;8.73;2.30;;;;;;;14.42;89.31;100528.00;5026340;28;20132;-84
2022/10/02 10:57:10;;;;;;;;;;;;;;;14.42;89.96;100543.88;5031877;28;20045;-85
2022/10/02 11:00:09;;;;;;;8.07;2.20;;;;;;;14.36;89.90;100554.91;5014059;28;19976;-84
2022/10/02 11:03:05;;;;;;;7.80;1.65;;;;;;;14.23;87.53;100546.22;5026840;28;20057;-82
2022/10/02 11:06:15;;;;;;;5.47;2.00;;;;;;;14.15;88.35;100525.63;5046865;28;20613;-84
2022/10/02 11:08:53;;;;;;;;;;;;;;;14.20;88.90;100534.06;5030016;28;20041;-83
2022/10/02 11:11:49;;;;;;;7.78;1.98;;;;;;;14.31;89.62;100543.84;5031381;28;20000;-84
2022/10/02 11:15:16;;;;;;;4.00;1.98;;;;;;;14.35;88.37;100542.66;5035721;28;20540;-85
2022/10/02 11:18:25;;;;;;;9.45;2.47;;;;;;;14.35;89.09;100542.66;5011633;28;20136;-83
2022/10/02 11:21:12;;;;;;;8.05;2.55;;;;;;;14.46;90.75;100548.00;5000502;28;20056;-83
2022/10/02 11:23:58;;;;;;;6.07;2.20;;;;;;;14.33;92.71;100548.06;5014839;28;20426;-83
2022/10/02 11:26:36;;;;;;;9.20;2.45;;;;;;;14.19;94.53;100546.47;5025016;28;20541;-83
2022/10/02 11:29:33;;;;;;;7.75;2.55;;;;;;;13.87;97.71;100545.38;5031484;28;20540;-83
2022/10/02 11:32:40;;;;;;;11.05;3.00;;;;;;;13.62;98.44;100538.38;5026707;28;20046;-82
2022/10/02 11:35:49;;;;;;;4.88;2.80;;;;;;;13.55;98.52;100527.41;5022965;28;20111;-83
2022/10/02 11:38:53;;;;;;;12.38;3.00;;;;;;;13.50;98.54;100526.88;5036717;28;20165;-83
2022/10/02 11:41:49;;;;;;;7.95;3.30;;;;;;;13.52;98.51;100521.50;5037186;28;20090;-84
2022/10/02 11:44:39;;;;;;;9.20;3.58;;;;;;;13.94;98.00;100528.91;5020749;28;20092;-82
2022/10/02 11:47:41;;;;;;;6.90;3.10;;;;;;;14.51;95.54;100532.63;5034010;28;20572;-84
2022/10/02 11:50:35;;;;;;;8.93;2.13;;;;;;;14.78;90.52;100528.78;5007622;28;20092;-83
2022/10/02 11:53:33;;;;;;;11.88;3.90;;;;;;;15.09;87.61;100527.22;5035750;28;20037;-83
2022/10/02 11:56:21;;;;;;;12.25;3.63;;;;;;;15.40;86.62;100517.63;5015859;28;20512;-86
2022/10/02 11:59:02;;;;;;;6.10;2.42;;;;;;;15.78;84.51;100530.47;5017742;28;20120;-85
2022/10/02 12:01:46;;;;;;;7.30;2.35;;;;;;;16.13;83.00;100522.25;4994178;28;20045;-82
2022/10/02 12:04:36;;;;;;;7.90;3.03;;;;;;;16.49;81.07;100516.63;5036774;28;20033;-85
2022/10/02 12:10:45;;;;;;;10.73;3.10;;;;;;;16.94;77.98;100517.97;5034304;28;20064;-83
2022/10/02 12:13:38;;;;;;;6.85;2.08;;;;;;;17.16;76.82;100518.75;5021596;28;20061;-84
2022/10/02 12:17:05;;;;;;;9.02;2.83;;;;;;;17.26;74.89;100516.97;5033942;28;20099;-84
2022/10/02 12:29:39;;;;;;;6.13;2.40;;;;;;;16.90;71.65;100534.34;5038717;28;20084;-83
2022/10/02 12:32:39;;;;;;;7.85;3.17;;;;;;;16.70;73.32;100528.88;5046614;28;20045;-82
2022/10/02 12:36:04;;;;;;;7.85;2.85;;;;;;;16.48;73.27;100522.88;5046884;28;20033;-83
2022/10/02 12:38:51;;;;;;;8.48;2.70;;;;;;;16.57;74.90;100538.03;5018479;28;20406;-83
2022/10/02 12:41:45;;;;;;;9.80;2.47;;;;;;;16.44;74.04;100536.44;5008805;28;20423;-83
2022/10/02 12:44:36;;;;;;;8.40;2.40;;;;;;;16.66;70.04;100531.94;5013562;28;20061;-83
2022/10/02 12:47:11;;;;;;;7.00;2.65;;;;;;;16.56;70.35;100537.19;5028617;28;20083;-85
2022/10/02 12:50:04;;;;;;;5.95;1.48;;;;;;;16.27;71.92;100541.50;5015689;28;20124;-84
2022/10/02 12:52:52;;;;;;;3.58;1.48;;;;;;;16.13;71.13;100538.19;5026627;28;20061;-83
2022/10/02 12:56:04;;;;;;;6.75;1.70;;;;;;;16.29;70.98;100532.41;5036449;28;20141;-85